FIN41 RKSI-EFHK
Flight info
| Callsign | FIN41 |
|---|---|
| Flight time | N/A |
| Altitude | 33000 |
| Route | EGOBA2A EGOBA Y697 LANAT Y51 SAMON Y142 NESKO/N0498F350 Y142 GTC Y512 OATIS R580 OPHET/N0493F370 R580 OBOYD DCT MUCLA DCT JUJXI/N0496F380 DCT 80N165W DCT DEKMO/N0494F400 DCT 8930N06000W/M085F390 82N020E/N0500F390 80N021E DCT BARUX/N0492F410 DCT IBOSU Y86 LUSEP |
| Aircraft | A359/H-SDE2E3GHIJ3J4J5LM1ORWXY/LB1D1 |
Departure
| Time | 2026-05-01 09:32 |
|---|---|
| Airport | Incheon International Airport (RKSI) |
Arrival
| Time | N/A |
|---|---|
| Airport | Helsinki Vantaa Airport (EFHK) |
| Time | Latitude | Longitude | Altitude | Speed | Heading |
|---|---|---|---|---|---|
| 2026-05-01 09:10 | 37.45273 | 126.45044 | 39 ft | 0 kts | 73° |
| 2026-05-01 09:22 | 37.45260 | 126.44997 | 37 ft | 4 kts | 63° |
| 2026-05-01 09:22 | 37.45227 | 126.44945 | 36 ft | 4 kts | 25° |
| 2026-05-01 09:23 | 37.45209 | 126.44941 | 37 ft | 1 kts | 343° |
| 2026-05-01 09:26 | 37.45392 | 126.44899 | 39 ft | 23 kts | 20° |
| 2026-05-01 09:26 | 37.45523 | 126.45069 | 39 ft | 31 kts | 53° |
| 2026-05-01 09:27 | 37.45748 | 126.45494 | 39 ft | 11 kts | 89° |
| 2026-05-01 09:27 | 37.45695 | 126.45578 | 39 ft | 14 kts | 139° |
| 2026-05-01 09:27 | 37.45606 | 126.45660 | 39 ft | 18 kts | 144° |
| 2026-05-01 09:28 | 37.45494 | 126.45756 | 38 ft | 21 kts | 146° |
| 2026-05-01 09:28 | 37.45369 | 126.45870 | 38 ft | 20 kts | 135° |
| 2026-05-01 09:28 | 37.45358 | 126.45892 | 38 ft | 3 kts | 117° |
| 2026-05-01 09:28 | 37.45363 | 126.45950 | 38 ft | 11 kts | 65° |
| 2026-05-01 09:29 | 37.45369 | 126.45963 | 38 ft | 0 kts | 63° |
| 2026-05-01 09:30 | 37.45389 | 126.45999 | 38 ft | 13 kts | 51° |
| 2026-05-01 09:30 | 37.45504 | 126.46014 | 38 ft | 24 kts | 327° |
| 2026-05-01 09:30 | 37.45559 | 126.45967 | 38 ft | 0 kts | 324° |
| 2026-05-01 09:31 | 37.45568 | 126.45958 | 39 ft | 10 kts | 324° |
| 2026-05-01 09:31 | 37.46380 | 126.45222 | 39 ft | 133 kts | 325° |
| 2026-05-01 09:32 | 37.47299 | 126.44416 | 52 ft | 187 kts | 320° |
| 2026-05-01 09:32 | 37.49729 | 126.42211 | 939 ft | 239 kts | 319° |
| 2026-05-01 09:32 | 37.51111 | 126.40872 | 1524 ft | 254 kts | 318° |
| 2026-05-01 09:33 | 37.52441 | 126.39509 | 1500 ft | 241 kts | 315° |
| 2026-05-01 09:33 | 37.53665 | 126.38147 | 1425 ft | 228 kts | 316° |
| 2026-05-01 09:33 | 37.55910 | 126.35678 | 2194 ft | 206 kts | 318° |
| 2026-05-01 09:34 | 37.57189 | 126.34773 | 2461 ft | 220 kts | 326° |
| 2026-05-01 09:34 | 37.58123 | 126.33258 | 2698 ft | 225 kts | 284° |
| 2026-05-01 09:34 | 37.58097 | 126.29336 | 3690 ft | 228 kts | 268° |
| 2026-05-01 09:35 | 37.58024 | 126.27311 | 4099 ft | 232 kts | 270° |
| 2026-05-01 09:35 | 37.57851 | 126.23229 | 5054 ft | 239 kts | 261° |
| 2026-05-01 09:35 | 37.57155 | 126.21269 | 5348 ft | 256 kts | 235° |